createdAt,value
2023-02-19T00:01:45.994Z,9.62
2023-02-19T00:04:16.427Z,9.71
2023-02-19T00:06:45.695Z,9.76
2023-02-19T00:09:15.955Z,9.70
2023-02-19T00:11:45.704Z,9.72
2023-02-19T00:14:18.110Z,9.69
2023-02-19T00:16:44.684Z,9.76
2023-02-19T00:19:16.436Z,9.58
2023-02-19T00:21:44.368Z,9.53
2023-02-19T00:24:14.662Z,9.46
2023-02-19T00:26:45.470Z,9.66
2023-02-19T00:29:17.541Z,9.55
2023-02-19T00:31:45.017Z,9.60
2023-02-19T00:36:44.488Z,9.71
2023-02-19T00:39:17.539Z,9.69
2023-02-19T00:41:45.373Z,9.68
2023-02-19T00:44:14.400Z,9.75
2023-02-19T00:46:45.823Z,9.71
2023-02-19T00:49:18.599Z,9.62
2023-02-19T00:51:44.973Z,9.56
2023-02-19T00:54:15.265Z,9.61
2023-02-19T00:56:44.530Z,9.60
2023-02-19T00:59:15.336Z,9.67
2023-02-19T01:01:45.108Z,9.59
2023-02-19T01:04:15.444Z,9.61
2023-02-19T01:06:44.285Z,9.50
2023-02-19T01:09:14.248Z,9.63
2023-02-19T01:11:44.596Z,9.48
2023-02-19T01:14:14.295Z,9.42
2023-02-19T01:19:14.502Z,9.51
2023-02-19T01:21:44.267Z,9.46
2023-02-19T01:24:15.699Z,9.41
2023-02-19T01:29:14.408Z,9.45
2023-02-19T01:31:44.566Z,9.28
2023-02-19T01:34:14.387Z,9.20
2023-02-19T01:36:44.424Z,9.22
2023-02-19T01:39:14.296Z,9.24
2023-02-19T01:41:44.275Z,9.19
2023-02-19T01:44:34.229Z,9.18
2023-02-19T01:46:47.576Z,9.22
2023-02-19T01:49:20.135Z,9.08
2023-02-19T01:51:51.440Z,9.09
2023-02-19T01:54:18.521Z,8.93
2023-02-19T01:56:47.727Z,8.84
2023-02-19T01:59:16.270Z,8.90
2023-02-19T02:01:44.634Z,8.79
2023-02-19T02:04:16.433Z,8.69
2023-02-19T02:06:49.234Z,8.83
2023-02-19T02:09:26.057Z,8.84
2023-02-19T02:11:47.813Z,8.78
2023-02-19T02:14:16.282Z,8.97
2023-02-19T02:16:54.663Z,8.88
2023-02-19T02:19:33.732Z,8.99
2023-02-19T02:21:55.295Z,9.12
2023-02-19T02:24:31.436Z,8.95
2023-02-19T02:26:57.014Z,8.99
2023-02-19T02:29:27.255Z,8.98
2023-02-19T02:31:49.293Z,9.01
2023-02-19T02:34:19.692Z,9.14
2023-02-19T02:36:48.925Z,9.24
2023-02-19T02:39:18.382Z,9.10
2023-02-19T02:42:05.465Z,9.12
2023-02-19T02:44:14.296Z,9.11
2023-02-19T02:46:45.752Z,9.27
2023-02-19T02:49:21.174Z,9.17
2023-02-19T02:51:48.356Z,9.04
2023-02-19T02:54:31.596Z,9.13
2023-02-19T02:56:47.979Z,9.12
2023-02-19T02:59:17.113Z,9.20
2023-02-19T03:01:58.062Z,9.37
2023-02-19T03:04:24.572Z,9.44
2023-02-19T03:06:47.817Z,9.48
2023-02-19T03:09:20.231Z,9.51
2023-02-19T03:14:28.778Z,9.49
2023-02-19T03:19:18.193Z,9.46
2023-02-19T03:21:48.749Z,9.43
2023-02-19T03:24:27.335Z,9.42
2023-02-19T03:26:53.341Z,9.39
2023-02-19T03:29:24.437Z,9.35
2023-02-19T03:31:46.551Z,9.29
2023-02-19T03:34:21.132Z,9.23
2023-02-19T03:36:51.674Z,9.19
2023-02-19T03:39:19.930Z,9.10
2023-02-19T03:41:52.377Z,8.94
2023-02-19T03:46:50.941Z,8.83
2023-02-19T03:49:22.828Z,8.81
2023-02-19T03:51:50.396Z,8.71
2023-02-19T03:54:19.900Z,8.59
2023-02-19T03:56:49.735Z,8.48
2023-02-19T03:59:22.846Z,8.42
2023-02-19T04:01:50.078Z,8.39
2023-02-19T04:04:20.503Z,8.48
2023-02-19T04:06:47.663Z,8.51
2023-02-19T04:09:16.769Z,8.52
2023-02-19T04:11:44.553Z,8.50
2023-02-19T04:16:49.121Z,8.42
2023-02-19T04:19:20.028Z,8.46
2023-02-19T04:21:46.325Z,8.48
2023-02-19T04:24:22.798Z,8.47
2023-02-19T04:26:45.229Z,8.43
2023-02-19T04:29:14.476Z,8.47
2023-02-19T04:31:44.579Z,8.46
2023-02-19T04:34:14.429Z,8.42
2023-02-19T04:39:14.567Z,8.39
2023-02-19T04:41:44.363Z,8.26
2023-02-19T04:44:14.345Z,8.24
2023-02-19T04:46:44.543Z,8.28
2023-02-19T04:51:44.680Z,8.09
2023-02-19T04:54:14.364Z,8.16
2023-02-19T04:56:44.425Z,8.09
2023-02-19T04:59:14.383Z,8.08
2023-02-19T05:01:44.521Z,8.14
2023-02-19T05:04:14.588Z,8.11
2023-02-19T05:06:44.484Z,8.14
2023-02-19T05:09:14.853Z,8.11
2023-02-19T05:11:44.333Z,8.09
2023-02-19T05:14:14.599Z,8.12
2023-02-19T05:16:44.703Z,8.10
2023-02-19T05:19:14.414Z,8.09
2023-02-19T05:21:44.464Z,8.03
2023-02-19T05:24:14.614Z,7.93
2023-02-19T05:26:45.488Z,8.00
2023-02-19T05:29:14.776Z,8.02
2023-02-19T05:31:44.660Z,8.04
2023-02-19T05:34:14.426Z,8.00
2023-02-19T05:36:44.370Z,8.01
2023-02-19T05:39:14.413Z,8.00
2023-02-19T05:41:44.573Z,8.01
2023-02-19T05:44:14.362Z,8.02
2023-02-19T05:46:44.724Z,7.97
2023-02-19T05:49:14.584Z,7.99
2023-02-19T05:51:44.384Z,7.98
2023-02-19T05:54:14.725Z,7.99
2023-02-19T05:56:44.559Z,7.97
2023-02-19T05:59:17.098Z,7.90
2023-02-19T06:01:45.160Z,7.92
2023-02-19T06:04:15.034Z,7.93
2023-02-19T06:06:45.344Z,7.90
2023-02-19T06:11:44.794Z,7.89
2023-02-19T06:14:14.368Z,7.82
2023-02-19T06:16:44.664Z,7.84
2023-02-19T06:19:14.697Z,7.80
2023-02-19T06:24:14.367Z,7.79
2023-02-19T06:26:45.694Z,7.76
2023-02-19T06:31:44.969Z,7.73
2023-02-19T06:34:14.976Z,7.70
2023-02-19T06:36:44.436Z,7.71
2023-02-19T06:39:14.753Z,7.72
2023-02-19T06:41:44.382Z,7.71
2023-02-19T06:46:44.667Z,7.72
2023-02-19T06:49:14.658Z,7.71
2023-02-19T06:51:44.607Z,7.73
2023-02-19T06:54:14.722Z,7.70
2023-02-19T06:59:16.059Z,7.65
2023-02-19T07:01:45.173Z,7.62
2023-02-19T07:04:14.842Z,7.60
2023-02-19T07:06:44.638Z,7.55
2023-02-19T07:09:14.438Z,7.47
2023-02-19T07:11:44.684Z,7.45
2023-02-19T07:14:15.955Z,7.44
2023-02-19T07:16:46.490Z,7.43
2023-02-19T07:21:44.422Z,7.42
